createdAt,value
2019-03-01T00:01:00.833Z,69.42
2019-03-01T00:03:30.487Z,69.19
2019-03-01T00:06:13.931Z,69.60
2019-03-01T00:09:08.962Z,69.80
2019-03-01T00:12:01.435Z,69.88
2019-03-01T00:14:50.702Z,70.57
2019-03-01T00:17:46.290Z,70.30
2019-03-01T00:20:32.379Z,69.56
2019-03-01T00:23:24.841Z,70.08
2019-03-01T00:26:27.197Z,70.74
2019-03-01T00:29:07.252Z,70.76
2019-03-01T00:32:22.867Z,71.90
2019-03-01T00:35:02.902Z,70.86
2019-03-01T00:37:42.931Z,72.15
2019-03-01T00:40:52.806Z,72.37
2019-03-01T00:43:33.014Z,71.92
2019-03-01T00:46:02.625Z,71.92
2019-03-01T00:48:32.667Z,72.17
2019-03-01T00:51:04.526Z,71.96
2019-03-01T00:53:34.050Z,72.21
2019-03-01T00:56:03.871Z,72.62
2019-03-01T00:58:33.676Z,71.60
2019-03-01T01:01:03.484Z,71.41
2019-03-01T01:03:33.139Z,71.31
2019-03-01T01:06:02.822Z,71.53
2019-03-01T01:08:32.458Z,71.74
2019-03-01T01:11:02.060Z,72.22
2019-03-01T01:13:32.504Z,72.15
2019-03-01T01:16:02.212Z,72.31
2019-03-01T01:18:31.792Z,72.19
2019-03-01T01:21:01.487Z,72.23
2019-03-01T01:23:31.058Z,72.16
2019-03-01T01:26:00.592Z,71.95
2019-03-01T01:28:50.257Z,72.59
2019-03-01T01:31:19.889Z,72.50
2019-03-01T01:33:52.419Z,72.95
2019-03-01T01:36:22.051Z,73.27
2019-03-01T01:38:51.582Z,73.88
2019-03-01T01:41:21.190Z,74.11
2019-03-01T01:43:51.941Z,74.41
2019-03-01T01:46:21.452Z,73.92
2019-03-01T01:48:51.243Z,73.83
2019-03-01T01:51:20.900Z,73.46
2019-03-01T01:53:50.626Z,74.65
2019-03-01T01:56:20.614Z,74.56
2019-03-01T01:58:50.239Z,74.94
2019-03-01T02:01:20.409Z,74.54
2019-03-01T02:03:49.994Z,74.63
2019-03-01T02:06:19.962Z,74.22
2019-03-01T02:08:49.461Z,73.99
2019-03-01T02:11:19.105Z,73.94
2019-03-01T02:13:48.820Z,74.67
2019-03-01T02:16:18.559Z,74.19
2019-03-01T02:18:57.518Z,74.32
2019-03-01T02:21:23.341Z,74.28
2019-03-01T02:23:52.921Z,74.11
2019-03-01T02:26:22.440Z,74.25
2019-03-01T02:28:52.076Z,74.17
2019-03-01T02:31:24.393Z,74.33
2019-03-01T02:33:54.023Z,73.69
2019-03-01T02:36:24.082Z,73.91
2019-03-01T02:38:53.604Z,73.77
2019-03-01T02:41:23.300Z,73.81
2019-03-01T02:43:52.847Z,74.35
2019-03-01T02:46:22.363Z,73.96
2019-03-01T02:48:51.869Z,74.22
2019-03-01T02:51:22.997Z,75.19
2019-03-01T02:53:52.521Z,75.99
2019-03-01T02:56:22.469Z,77.03
2019-03-01T02:58:52.180Z,77.80
2019-03-01T03:01:21.697Z,78.29
2019-03-01T03:03:51.204Z,78.75
2019-03-01T03:06:25.292Z,78.87
2019-03-01T03:08:55.259Z,78.60
2019-03-01T03:11:24.801Z,78.95
2019-03-01T03:13:59.532Z,79.01
2019-03-01T03:16:29.107Z,79.20
2019-03-01T03:18:58.844Z,79.02
2019-03-01T03:21:28.408Z,78.53
2019-03-01T03:23:57.960Z,79.11
2019-03-01T03:26:27.569Z,80.42
2019-03-01T03:28:57.300Z,80.98
2019-03-01T03:31:26.905Z,81.97
2019-03-01T03:33:56.423Z,81.21
2019-03-01T03:36:26.271Z,82.15
2019-03-01T03:38:55.912Z,82.23
2019-03-01T03:41:25.572Z,82.49
2019-03-01T03:44:14.863Z,82.37
2019-03-01T03:46:44.505Z,83.14
2019-03-01T03:49:14.219Z,82.87
2019-03-01T03:51:45.334Z,82.63
2019-03-01T03:54:14.883Z,82.77
2019-03-01T03:56:44.691Z,82.96
2019-03-01T03:59:14.443Z,81.61
2019-03-01T04:01:44.142Z,81.35
2019-03-01T04:04:13.903Z,81.52
2019-03-01T04:06:43.948Z,81.14
2019-03-01T04:09:13.992Z,80.67
2019-03-01T04:11:43.676Z,81.44
2019-03-01T04:14:14.971Z,80.92
2019-03-01T04:16:44.491Z,81.33
2019-03-01T04:19:17.148Z,81.44
2019-03-01T04:21:46.869Z,80.93
2019-03-01T04:24:16.383Z,81.33
2019-03-01T04:26:45.993Z,81.64
2019-03-01T04:29:15.976Z,81.82
2019-03-01T04:31:45.584Z,82.26
2019-03-01T04:34:15.287Z,81.97
2019-03-01T04:36:44.932Z,82.06
2019-03-01T04:39:14.549Z,81.89
2019-03-01T04:41:44.333Z,81.37
2019-03-01T04:44:14.021Z,81.82
2019-03-01T04:46:45.637Z,82.33
2019-03-01T04:49:15.841Z,81.81
2019-03-01T04:51:45.761Z,81.23
2019-03-01T04:54:15.405Z,81.43
2019-03-01T04:56:45.129Z,81.10
2019-03-01T04:59:14.767Z,82.04
2019-03-01T05:01:44.440Z,84.14
2019-03-01T05:04:14.159Z,83.29
2019-03-01T05:06:43.925Z,82.51
2019-03-01T05:09:14.031Z,80.89
2019-03-01T05:11:43.581Z,80.68
2019-03-01T05:14:13.436Z,80.88
2019-03-01T05:16:43.037Z,79.85
2019-03-01T05:19:12.701Z,80.14
2019-03-01T05:21:42.284Z,80.54
2019-03-01T05:24:11.904Z,80.38
2019-03-01T05:26:41.511Z,79.31
2019-03-01T05:29:11.151Z,80.08
2019-03-01T05:31:41.612Z,79.15
2019-03-01T05:34:11.190Z,78.18
2019-03-01T05:36:41.369Z,76.95
2019-03-01T05:39:10.938Z,76.49
2019-03-01T05:41:40.627Z,76.35
2019-03-01T05:44:10.295Z,76.49
2019-03-01T05:46:39.814Z,76.37
2019-03-01T05:49:09.364Z,76.59
2019-03-01T05:51:38.963Z,77.31
2019-03-01T05:54:08.851Z,77.83
2019-03-01T05:56:38.475Z,78.70
2019-03-01T05:59:17.176Z,78.97
2019-03-01T06:01:57.169Z,78.91
2019-03-01T06:04:31.509Z,78.41
2019-03-01T06:07:24.655Z,79.04
2019-03-01T06:10:07.649Z,78.42
2019-03-01T06:13:03.137Z,78.27
2019-03-01T06:15:42.245Z,78.39
2019-03-01T06:18:31.634Z,79.30
2019-03-01T06:21:24.142Z,78.46
2019-03-01T06:24:27.092Z,78.58
2019-03-01T06:27:48.140Z,78.32
2019-03-01T06:30:51.680Z,79.29
2019-03-01T06:33:37.458Z,79.10
2019-03-01T06:36:32.574Z,79.44
2019-03-01T06:39:15.528Z,79.45
2019-03-01T06:42:09.412Z,79.21
2019-03-01T06:45:01.491Z,78.46
2019-03-01T06:47:47.531Z,78.58
2019-03-01T06:50:24.475Z,77.66
2019-03-01T06:52:54.158Z,78.08
2019-03-01T06:55:41.847Z,77.81
2019-03-01T06:58:16.365Z,76.98
2019-03-01T07:00:50.352Z,76.56
2019-03-01T07:03:20.299Z,80.47
2019-03-01T07:05:49.971Z,78.28
2019-03-01T07:08:21.302Z,78.44
2019-03-01T07:10:50.974Z,77.25
2019-03-01T07:13:22.144Z,78.12
2019-03-01T07:15:51.974Z,78.81
2019-03-01T07:18:21.642Z,79.35
2019-03-01T07:20:51.653Z,78.66
2019-03-01T07:23:23.352Z,77.86
2019-03-01T07:25:54.752Z,77.26
2019-03-01T07:28:24.294Z,77.69
2019-03-01T07:30:53.926Z,77.86
2019-03-01T07:33:23.753Z,76.59
2019-03-01T07:35:53.329Z,76.67
2019-03-01T07:38:22.905Z,76.44
2019-03-01T07:40:52.882Z,75.34
2019-03-01T07:43:22.707Z,75.59
2019-03-01T07:45:52.487Z,75.84
2019-03-01T07:48:22.021Z,75.35
2019-03-01T07:50:52.460Z,75.63
2019-03-01T07:53:22.928Z,75.88
2019-03-01T07:55:52.467Z,74.96
2019-03-01T07:58:25.599Z,74.37
2019-03-01T08:00:54.737Z,75.00
2019-03-01T08:03:24.566Z,75.35
2019-03-01T08:05:54.158Z,74.98
2019-03-01T08:08:23.709Z,74.64
2019-03-01T08:10:56.034Z,74.14
2019-03-01T08:13:26.698Z,74.20
2019-03-01T08:15:58.280Z,75.05
2019-03-01T08:18:27.881Z,76.25
2019-03-01T08:20:57.737Z,75.62
2019-03-01T08:23:27.639Z,74.65
2019-03-01T08:25:58.945Z,74.36
2019-03-01T08:28:28.749Z,74.26
2019-03-01T08:30:59.636Z,75.45
2019-03-01T08:33:29.174Z,74.53
2019-03-01T08:35:58.700Z,73.97
2019-03-01T08:38:28.889Z,73.67
2019-03-01T08:40:59.435Z,73.82
2019-03-01T08:43:28.944Z,73.14
2019-03-01T08:45:58.537Z,73.04
2019-03-01T08:48:30.593Z,72.14
2019-03-01T08:50:59.676Z,72.58
2019-03-01T08:53:29.515Z,72.60
2019-03-01T08:55:59.200Z,73.09
2019-03-01T08:58:28.947Z,72.58
2019-03-01T09:00:59.959Z,71.87
2019-03-01T09:03:42.676Z,71.76
2019-03-01T09:06:12.823Z,72.80
2019-03-01T09:08:43.031Z,72.30
2019-03-01T09:11:13.775Z,72.46
2019-03-01T09:13:46.827Z,72.19
2019-03-01T09:16:16.587Z,71.93
2019-03-01T09:18:46.688Z,72.44
2019-03-01T09:21:17.489Z,71.86
2019-03-01T09:23:47.917Z,72.36
2019-03-01T09:26:19.993Z,72.72
2019-03-01T09:28:50.633Z,71.40
2019-03-01T09:31:20.497Z,72.93
2019-03-01T09:33:50.182Z,71.46
2019-03-01T09:36:21.615Z,72.02
2019-03-01T09:38:51.751Z,71.64
2019-03-01T09:41:21.594Z,71.97
2019-03-01T09:43:51.975Z,71.95
2019-03-01T09:46:24.307Z,71.67
2019-03-01T09:48:52.926Z,71.27
2019-03-01T09:51:22.797Z,71.61
2019-03-01T09:53:53.037Z,71.95
2019-03-01T09:56:24.322Z,71.74
2019-03-01T09:58:55.948Z,71.92
2019-03-01T10:01:25.728Z,72.27
2019-03-01T10:03:56.255Z,71.82
2019-03-01T10:06:26.364Z,71.19
2019-03-01T10:08:56.026Z,71.55
2019-03-01T10:11:25.738Z,71.50
2019-03-01T10:13:55.660Z,70.63
2019-03-01T10:16:25.578Z,70.41
2019-03-01T10:18:55.170Z,70.65
2019-03-01T10:21:25.642Z,69.78
2019-03-01T10:23:55.401Z,70.07
2019-03-01T10:26:25.523Z,70.46
2019-03-01T10:28:55.319Z,69.65
2019-03-01T10:31:24.964Z,68.75
2019-03-01T10:33:54.500Z,67.27
2019-03-01T10:36:24.118Z,65.59
2019-03-01T10:38:53.681Z,65.38
2019-03-01T10:41:23.262Z,64.66
2019-03-01T10:43:53.234Z,64.87
2019-03-01T10:46:22.835Z,62.16
2019-03-01T10:48:52.676Z,61.49
2019-03-01T10:51:22.555Z,61.32
2019-03-01T10:53:52.109Z,60.51
2019-03-01T10:56:21.689Z,59.97
2019-03-01T10:58:51.296Z,58.46
2019-03-01T11:01:21.370Z,58.06
2019-03-01T11:03:51.234Z,57.43
2019-03-01T11:06:22.527Z,56.76
2019-03-01T11:08:52.208Z,55.17
2019-03-01T11:11:21.761Z,55.36
2019-03-01T11:13:51.527Z,55.22
2019-03-01T11:16:21.214Z,54.80
2019-03-01T11:18:51.065Z,53.98
2019-03-01T11:21:20.799Z,53.95
2019-03-01T11:23:50.786Z,55.44
2019-03-01T11:26:20.633Z,56.55
2019-03-01T11:28:50.876Z,55.82
2019-03-01T11:31:20.532Z,55.67
2019-03-01T11:33:50.409Z,55.19
2019-03-01T11:36:20.572Z,55.24
2019-03-01T11:38:50.535Z,54.97
2019-03-01T11:41:20.192Z,55.06
2019-03-01T11:43:49.900Z,55.22
2019-03-01T11:46:19.521Z,54.95
2019-03-01T11:48:49.279Z,55.26
2019-03-01T11:51:20.827Z,55.40
2019-03-01T11:53:50.386Z,54.81
2019-03-01T11:56:20.061Z,55.43
2019-03-01T11:58:49.836Z,55.55
2019-03-01T12:01:23.792Z,55.28
2019-03-01T12:03:53.875Z,54.54
2019-03-01T12:06:23.706Z,55.47
2019-03-01T12:08:53.305Z,55.17
2019-03-01T12:11:23.002Z,55.14
2019-03-01T12:13:52.724Z,55.01
2019-03-01T12:16:22.522Z,55.24
2019-03-01T12:18:52.204Z,55.91
2019-03-01T12:21:22.059Z,55.98
2019-03-01T12:23:51.755Z,55.78
2019-03-01T12:26:21.394Z,55.82
2019-03-01T12:28:51.131Z,56.04
2019-03-01T12:31:20.885Z,55.88
2019-03-01T12:33:50.465Z,55.64
2019-03-01T12:36:20.301Z,56.12
2019-03-01T12:38:50.083Z,55.98
2019-03-01T12:41:19.845Z,55.91
2019-03-01T12:43:49.644Z,55.14
2019-03-01T12:46:19.282Z,55.48
2019-03-01T12:48:48.884Z,55.71
2019-03-01T12:51:19.029Z,55.72
2019-03-01T12:53:48.630Z,55.78
2019-03-01T12:56:20.062Z,55.30
2019-03-01T12:58:49.955Z,54.62
2019-03-01T13:01:19.894Z,54.61
2019-03-01T13:03:50.121Z,55.17
2019-03-01T13:06:23.360Z,54.65
2019-03-01T13:08:53.078Z,53.88
2019-03-01T13:11:22.591Z,53.50
2019-03-01T13:13:52.381Z,53.08
2019-03-01T13:16:23.437Z,53.18
2019-03-01T13:18:53.675Z,52.82
2019-03-01T13:21:23.799Z,52.81
2019-03-01T13:23:53.501Z,53.29
2019-03-01T13:26:23.076Z,53.37
2019-03-01T13:28:52.696Z,53.01
2019-03-01T13:31:22.304Z,52.36
2019-03-01T13:33:52.365Z,52.19
2019-03-01T13:36:22.546Z,52.65
2019-03-01T13:38:53.086Z,52.62
2019-03-01T13:41:22.648Z,52.56
2019-03-01T13:43:55.678Z,52.64
2019-03-01T13:46:26.446Z,52.52
2019-03-01T13:48:56.709Z,52.59
2019-03-01T13:51:26.534Z,52.78
2019-03-01T13:53:56.153Z,52.95
2019-03-01T13:56:28.079Z,52.81
2019-03-01T13:58:59.507Z,53.03
2019-03-01T14:01:30.669Z,52.21
2019-03-01T14:04:03.220Z,51.59
2019-03-01T14:06:32.654Z,51.74
2019-03-01T14:09:02.352Z,51.19
2019-03-01T14:11:31.953Z,51.39
2019-03-01T14:14:03.752Z,51.15
2019-03-01T14:16:33.296Z,52.36
2019-03-01T14:19:02.925Z,51.97
2019-03-01T14:21:33.065Z,52.39
2019-03-01T14:24:03.670Z,52.30
2019-03-01T14:26:33.232Z,52.52
2019-03-01T14:29:03.036Z,52.39
2019-03-01T14:31:32.626Z,52.32
2019-03-01T14:34:02.151Z,52.38
2019-03-01T14:36:31.860Z,52.85
2019-03-01T14:39:03.485Z,53.04
2019-03-01T14:41:35.035Z,53.73
2019-03-01T14:44:04.065Z,53.16
2019-03-01T14:46:33.597Z,52.84
2019-03-01T14:49:03.303Z,53.12
2019-03-01T14:51:33.980Z,52.45
2019-03-01T14:54:07.009Z,52.19
2019-03-01T14:56:39.124Z,52.97
2019-03-01T14:59:25.199Z,51.91
2019-03-01T15:02:16.900Z,52.11
2019-03-01T15:04:46.663Z,52.56
2019-03-01T15:07:17.007Z,53.67
2019-03-01T15:09:46.671Z,53.85
2019-03-01T15:12:21.053Z,52.87
2019-03-01T15:14:51.576Z,52.38
2019-03-01T15:17:21.909Z,52.56
2019-03-01T15:20:16.779Z,52.08
2019-03-01T15:22:48.699Z,52.62
2019-03-01T15:25:18.321Z,52.74
2019-03-01T15:27:48.226Z,52.78
2019-03-01T15:30:19.020Z,52.59
2019-03-01T15:32:48.731Z,52.77
2019-03-01T15:35:18.490Z,52.79
2019-03-01T15:37:48.043Z,52.88
2019-03-01T15:40:17.720Z,52.29
2019-03-01T15:42:47.394Z,52.41
2019-03-01T15:45:17.612Z,52.08
2019-03-01T15:47:47.603Z,52.64
2019-03-01T15:50:17.308Z,52.87
2019-03-01T15:52:49.848Z,52.59
2019-03-01T15:55:18.280Z,52.70
2019-03-01T15:57:47.956Z,52.85
2019-03-01T16:00:19.509Z,52.87
2019-03-01T16:02:50.078Z,52.91
2019-03-01T16:05:21.257Z,53.26
2019-03-01T16:07:50.826Z,53.50
2019-03-01T16:10:21.445Z,53.55
2019-03-01T16:12:51.339Z,53.38
2019-03-01T16:15:20.877Z,53.15
2019-03-01T16:17:50.491Z,53.36
2019-03-01T16:20:21.400Z,53.35
2019-03-01T16:22:53.805Z,53.47
2019-03-01T16:25:22.411Z,53.39
2019-03-01T16:27:54.271Z,53.37
2019-03-01T16:30:23.790Z,53.78
2019-03-01T16:32:53.644Z,53.42
2019-03-01T16:35:23.622Z,53.40
2019-03-01T16:37:57.916Z,53.95
2019-03-01T16:40:26.601Z,53.68
2019-03-01T16:42:57.950Z,53.42
2019-03-01T16:45:28.050Z,53.41
2019-03-01T16:47:57.714Z,53.25
2019-03-01T16:50:29.088Z,53.18
2019-03-01T16:53:04.298Z,53.34
2019-03-01T16:55:32.422Z,53.66
2019-03-01T16:58:06.919Z,53.70
2019-03-01T17:00:34.102Z,53.01
2019-03-01T17:03:18.117Z,53.26
2019-03-01T17:05:48.430Z,53.27
2019-03-01T17:08:18.152Z,53.08
2019-03-01T17:10:48.171Z,53.19
2019-03-01T17:13:17.819Z,52.86
2019-03-01T17:15:48.493Z,52.32
2019-03-01T17:18:19.412Z,52.69
2019-03-01T17:20:50.436Z,52.83
2019-03-01T17:23:19.987Z,52.91
2019-03-01T17:25:49.651Z,53.25
2019-03-01T17:28:23.546Z,53.15
2019-03-01T17:30:51.784Z,53.40
2019-03-01T17:33:23.030Z,53.36
2019-03-01T17:35:52.642Z,53.41
2019-03-01T17:38:22.246Z,53.31
2019-03-01T17:40:51.814Z,54.10
2019-03-01T17:43:21.440Z,53.97
2019-03-01T17:45:54.425Z,54.11
2019-03-01T17:48:22.440Z,53.78
2019-03-01T17:50:51.987Z,53.59
2019-03-01T17:53:21.586Z,53.50
2019-03-01T17:56:10.866Z,54.12
2019-03-01T17:58:40.369Z,54.35
2019-03-01T18:01:10.111Z,54.36
2019-03-01T18:03:39.664Z,54.38
2019-03-01T18:06:09.239Z,54.08
2019-03-01T18:08:39.611Z,54.05
2019-03-01T18:11:10.425Z,53.83
2019-03-01T18:13:40.033Z,53.95
2019-03-01T18:16:09.578Z,54.04
2019-03-01T18:18:39.660Z,54.25
2019-03-01T18:21:10.093Z,54.05
2019-03-01T18:23:40.665Z,54.40
2019-03-01T18:26:10.384Z,54.19
2019-03-01T18:28:42.926Z,54.64
2019-03-01T18:31:12.512Z,54.62
2019-03-01T18:33:44.948Z,54.76
2019-03-01T18:36:14.591Z,54.70
2019-03-01T18:38:44.168Z,55.05
2019-03-01T18:41:13.822Z,54.98
2019-03-01T18:43:45.911Z,55.33
2019-03-01T18:46:19.185Z,54.91
2019-03-01T18:48:46.728Z,54.74
2019-03-01T18:51:16.888Z,55.35
2019-03-01T18:53:46.528Z,56.08
2019-03-01T18:56:16.104Z,55.75
2019-03-01T18:58:48.857Z,55.95
2019-03-01T19:01:17.079Z,56.37
2019-03-01T19:03:46.725Z,56.37
2019-03-01T19:06:17.204Z,56.49
2019-03-01T19:08:46.859Z,56.54
2019-03-01T19:11:16.924Z,56.85
2019-03-01T19:13:46.991Z,56.64
2019-03-01T19:16:16.599Z,57.11
2019-03-01T19:18:48.252Z,57.18
2019-03-01T19:21:18.212Z,57.04
2019-03-01T19:23:47.921Z,57.49
2019-03-01T19:26:18.550Z,57.22
2019-03-01T19:28:48.146Z,57.08
2019-03-01T19:31:17.856Z,57.67
2019-03-01T19:33:47.426Z,57.52
2019-03-01T19:36:17.015Z,57.12
2019-03-01T19:38:46.681Z,57.14
2019-03-01T19:41:16.319Z,57.33
2019-03-01T19:43:54.296Z,57.16
2019-03-01T19:46:17.210Z,57.25
2019-03-01T19:48:47.095Z,57.95
2019-03-01T19:51:16.826Z,58.05
2019-03-01T19:53:46.440Z,58.00
2019-03-01T19:56:18.989Z,57.65
2019-03-01T19:58:48.106Z,57.92
2019-03-01T20:01:18.709Z,57.68
2019-03-01T20:03:48.632Z,57.70
2019-03-01T20:06:18.232Z,58.25
2019-03-01T20:08:47.822Z,59.01
2019-03-01T20:11:26.830Z,59.52
2019-03-01T20:13:56.009Z,59.49
2019-03-01T20:16:25.732Z,59.29
2019-03-01T20:18:57.353Z,58.95
2019-03-01T20:21:26.905Z,59.24
2019-03-01T20:23:56.434Z,58.96
2019-03-01T20:26:26.810Z,59.05
2019-03-01T20:28:57.134Z,59.67
2019-03-01T20:31:26.749Z,60.08
2019-03-01T20:33:58.627Z,60.03
2019-03-01T20:36:27.824Z,60.53
2019-03-01T20:38:57.762Z,60.12
2019-03-01T20:41:28.291Z,60.00
2019-03-01T20:43:58.099Z,59.89
2019-03-01T20:46:27.817Z,60.07
2019-03-01T20:48:57.381Z,60.43
2019-03-01T20:51:27.975Z,60.25
2019-03-01T20:53:57.778Z,59.49
2019-03-01T20:56:27.549Z,59.75
2019-03-01T20:58:57.091Z,58.57
2019-03-01T21:01:27.780Z,58.29
2019-03-01T21:03:57.546Z,57.90
2019-03-01T21:06:27.282Z,57.51
2019-03-01T21:08:57.093Z,57.05
2019-03-01T21:11:26.738Z,57.04
2019-03-01T21:13:56.772Z,56.24
2019-03-01T21:16:26.368Z,56.55
2019-03-01T21:18:56.123Z,56.38
2019-03-01T21:21:28.825Z,56.55
2019-03-01T21:23:57.054Z,56.38
2019-03-01T21:26:27.043Z,56.67
2019-03-01T21:28:57.234Z,56.66
2019-03-01T21:31:26.887Z,56.85
2019-03-01T21:33:59.452Z,57.53
2019-03-01T21:36:28.092Z,57.19
2019-03-01T21:38:57.758Z,57.31
2019-03-01T21:41:27.613Z,57.77
2019-03-01T21:43:57.280Z,57.60
2019-03-01T21:46:30.558Z,57.34
2019-03-01T21:49:00.500Z,57.41
2019-03-01T21:51:34.814Z,57.77
2019-03-01T21:54:04.582Z,58.15
2019-03-01T21:56:34.746Z,58.59
2019-03-01T21:59:04.285Z,57.83
2019-03-01T22:01:33.869Z,58.32
2019-03-01T22:04:03.686Z,58.41
2019-03-01T22:06:33.808Z,58.78
2019-03-01T22:09:06.115Z,59.02
2019-03-01T22:11:36.242Z,59.14
2019-03-01T22:14:07.609Z,58.84
2019-03-01T22:16:39.379Z,58.72
2019-03-01T22:19:08.914Z,58.74
2019-03-01T22:21:38.933Z,58.58
2019-03-01T22:24:08.540Z,58.19
2019-03-01T22:26:38.694Z,58.06
2019-03-01T22:29:08.926Z,58.90
2019-03-01T22:31:41.825Z,58.44
2019-03-01T22:34:11.624Z,58.35
2019-03-01T22:36:41.814Z,58.28
2019-03-01T22:39:13.677Z,57.79
2019-03-01T22:41:45.316Z,57.54
2019-03-01T22:44:15.072Z,57.84
2019-03-01T22:46:44.942Z,58.34
2019-03-01T22:49:15.202Z,58.31
2019-03-01T22:51:45.049Z,58.87
2019-03-01T22:54:17.844Z,58.76
2019-03-01T22:56:48.503Z,59.29
2019-03-01T22:59:19.094Z,58.52
2019-03-01T23:01:49.114Z,58.22
2019-03-01T23:04:21.202Z,58.76
2019-03-01T23:06:51.596Z,58.77
2019-03-01T23:09:22.919Z,58.70
2019-03-01T23:11:54.310Z,58.55
2019-03-01T23:14:27.398Z,58.44
2019-03-01T23:16:55.736Z,58.66
2019-03-01T23:19:25.586Z,58.79
2019-03-01T23:21:55.507Z,58.94
2019-03-01T23:24:25.197Z,58.47
2019-03-01T23:26:56.868Z,58.41
2019-03-01T23:29:28.907Z,58.80
2019-03-01T23:31:58.888Z,59.08
2019-03-01T23:34:31.119Z,59.40
2019-03-01T23:37:03.539Z,59.25
2019-03-01T23:39:32.341Z,59.65
2019-03-01T23:42:03.399Z,60.05
2019-03-01T23:44:35.146Z,59.83
2019-03-01T23:47:05.154Z,59.76
2019-03-01T23:49:35.003Z,59.56
2019-03-01T23:52:06.515Z,59.59
2019-03-01T23:54:36.017Z,59.44
2019-03-01T23:57:06.988Z,59.27
2019-03-01T23:59:36.768Z,59.94
